createdAt,value
2022-07-26T00:00:32.942Z,81.93
2022-07-26T00:01:33.006Z,81.45
2022-07-26T00:02:32.953Z,81.93
2022-07-26T00:03:32.813Z,81.54
2022-07-26T00:04:32.774Z,81.83
2022-07-26T00:05:32.726Z,81.63
2022-07-26T00:06:32.686Z,82.98
2022-07-26T00:07:36.606Z,82.31
2022-07-26T00:08:32.601Z,82.12
2022-07-26T00:09:32.555Z,81.93
2022-07-26T00:10:32.517Z,82.50
2022-07-26T00:11:32.468Z,82.70
2022-07-26T00:12:32.431Z,82.70
2022-07-26T00:13:32.384Z,82.50
2022-07-26T00:14:32.342Z,82.79
2022-07-26T00:15:32.298Z,82.60
2022-07-26T00:16:32.302Z,83.18
2022-07-26T00:17:32.211Z,82.79
2022-07-26T00:18:32.171Z,83.47
2022-07-26T00:19:32.126Z,84.05
2022-07-26T00:20:32.083Z,83.75
2022-07-26T00:21:32.039Z,83.95
2022-07-26T00:22:32.004Z,83.81
2022-07-26T00:23:31.955Z,83.81
2022-07-26T00:24:35.416Z,83.72
2022-07-26T00:25:31.869Z,83.81
2022-07-26T00:26:31.825Z,84.00
2022-07-26T00:27:31.782Z,84.67
2022-07-26T00:28:31.741Z,84.39
2022-07-26T00:29:31.701Z,84.58
2022-07-26T00:30:31.656Z,84.48
2022-07-26T00:31:31.661Z,84.48
2022-07-26T00:32:31.567Z,84.58
2022-07-26T00:33:31.524Z,84.67
2022-07-26T00:34:31.482Z,84.29
2022-07-26T00:35:31.438Z,85.06
2022-07-26T00:36:31.399Z,84.67
2022-07-26T00:37:31.353Z,84.87
2022-07-26T00:38:31.311Z,85.25
2022-07-26T00:39:31.271Z,85.74
2022-07-26T00:40:31.224Z,85.54
2022-07-26T00:41:31.182Z,85.54
2022-07-26T00:42:31.137Z,85.74
2022-07-26T00:43:31.093Z,86.51
2022-07-26T00:44:31.050Z,86.02
2022-07-26T00:45:31.006Z,86.51
2022-07-26T00:46:31.033Z,86.51
2022-07-26T00:47:30.924Z,86.79
2022-07-26T00:48:30.961Z,86.27
2022-07-26T00:49:30.835Z,87.18
2022-07-26T00:50:30.795Z,86.27
2022-07-26T00:51:30.751Z,86.46
2022-07-26T00:52:30.710Z,86.65
2022-07-26T00:53:30.663Z,86.46
2022-07-26T00:54:30.622Z,87.08
2022-07-26T00:55:30.575Z,87.33
2022-07-26T00:56:30.533Z,86.94
2022-07-26T00:57:30.517Z,86.94
2022-07-26T00:58:30.449Z,87.04
2022-07-26T00:59:30.407Z,87.33
2022-07-26T01:00:30.362Z,87.13
2022-07-26T01:01:30.395Z,87.13
2022-07-26T01:02:30.334Z,87.33
2022-07-26T01:03:36.609Z,87.52
2022-07-26T01:04:30.187Z,87.81
2022-07-26T01:05:30.143Z,87.62
2022-07-26T01:06:30.101Z,87.81
2022-07-26T01:07:30.056Z,87.71
2022-07-26T01:08:30.018Z,87.71
2022-07-26T01:09:29.972Z,87.71
2022-07-26T01:10:29.925Z,87.71
2022-07-26T01:11:29.885Z,88.19
2022-07-26T01:12:29.843Z,87.62
2022-07-26T01:13:34.911Z,87.52
2022-07-26T01:14:29.756Z,88.10
2022-07-26T01:15:29.714Z,88.10
2022-07-26T01:16:29.733Z,87.90
2022-07-26T01:17:29.625Z,88.00
2022-07-26T01:18:29.579Z,87.90
2022-07-26T01:19:29.540Z,88.10
2022-07-26T01:20:29.493Z,88.10
2022-07-26T01:21:29.453Z,88.10
2022-07-26T01:22:29.408Z,88.00
2022-07-26T01:23:29.369Z,87.71
2022-07-26T01:24:29.328Z,87.71
2022-07-26T01:25:29.281Z,88.29
2022-07-26T01:26:29.237Z,88.10
2022-07-26T01:27:33.826Z,88.10
2022-07-26T01:28:29.152Z,88.48
2022-07-26T01:29:34.636Z,88.39
2022-07-26T01:30:29.061Z,88.77
2022-07-26T01:31:29.147Z,88.39
2022-07-26T01:32:28.975Z,87.81
2022-07-26T01:33:28.932Z,88.39
2022-07-26T01:34:28.887Z,88.48
2022-07-26T01:35:29.053Z,88.57
2022-07-26T01:36:28.804Z,88.67
2022-07-26T01:37:28.761Z,89.25
2022-07-26T01:38:28.718Z,88.87
2022-07-26T01:39:28.675Z,88.96
2022-07-26T01:40:28.634Z,88.87
2022-07-26T01:41:33.603Z,88.00
2022-07-26T01:42:28.544Z,88.29
2022-07-26T01:43:28.501Z,88.10
2022-07-26T01:44:28.456Z,88.29
2022-07-26T01:45:28.438Z,88.29
2022-07-26T01:46:28.448Z,87.71
2022-07-26T01:47:28.329Z,88.04
2022-07-26T01:48:28.419Z,88.00
2022-07-26T01:49:28.244Z,88.19
2022-07-26T01:50:28.195Z,88.53
2022-07-26T01:51:28.156Z,88.14
2022-07-26T01:52:28.109Z,88.10
2022-07-26T01:53:28.069Z,87.90
2022-07-26T01:54:28.024Z,87.81
2022-07-26T01:55:27.982Z,87.81
2022-07-26T01:56:27.938Z,88.29
2022-07-26T01:57:27.895Z,87.71
2022-07-26T01:58:27.852Z,88.10
2022-07-26T01:59:27.809Z,88.33
2022-07-26T02:00:27.766Z,88.10
2022-07-26T02:01:39.400Z,88.29
2022-07-26T02:02:27.805Z,88.19
2022-07-26T02:03:27.635Z,88.33
2022-07-26T02:04:27.590Z,88.81
2022-07-26T02:05:27.553Z,87.90
2022-07-26T02:06:27.505Z,87.90
2022-07-26T02:07:27.464Z,88.81
2022-07-26T02:08:27.416Z,88.67
2022-07-26T02:09:27.872Z,88.29
2022-07-26T02:10:27.334Z,88.62
2022-07-26T02:11:27.291Z,88.00
2022-07-26T02:12:27.245Z,88.53
2022-07-26T02:13:27.203Z,88.53
2022-07-26T02:14:28.154Z,87.90
2022-07-26T02:15:27.117Z,88.43
2022-07-26T02:16:27.160Z,88.00
2022-07-26T02:17:27.033Z,88.19
2022-07-26T02:18:26.987Z,88.39
2022-07-26T02:19:26.944Z,88.24
2022-07-26T02:20:26.900Z,88.67
2022-07-26T02:21:26.857Z,88.67
2022-07-26T02:22:26.814Z,88.48
2022-07-26T02:23:26.772Z,88.57
2022-07-26T02:24:26.727Z,88.62
2022-07-26T02:25:26.684Z,88.48
2022-07-26T02:26:26.642Z,88.81
2022-07-26T02:27:26.600Z,88.43
2022-07-26T02:28:26.554Z,88.57
2022-07-26T02:29:26.511Z,88.57
2022-07-26T02:30:26.467Z,89.15
2022-07-26T02:31:32.170Z,88.77
2022-07-26T02:32:26.384Z,88.71
2022-07-26T02:33:26.341Z,88.87
2022-07-26T02:34:27.548Z,89.15
2022-07-26T02:35:26.258Z,89.06
2022-07-26T02:36:26.210Z,88.96
2022-07-26T02:37:26.172Z,88.77
2022-07-26T02:38:26.134Z,88.87
2022-07-26T02:39:26.083Z,88.67
2022-07-26T02:40:26.033Z,89.35
2022-07-26T02:41:25.991Z,88.77
2022-07-26T02:42:25.948Z,88.87
2022-07-26T02:43:25.906Z,89.15
2022-07-26T02:44:25.864Z,89.10
2022-07-26T02:45:25.937Z,89.15
2022-07-26T02:46:25.827Z,89.25
2022-07-26T02:47:25.737Z,89.58
2022-07-26T02:48:25.693Z,89.35
2022-07-26T02:49:25.649Z,89.54
2022-07-26T02:50:25.712Z,89.54
2022-07-26T02:51:25.563Z,89.35
2022-07-26T02:52:25.518Z,89.35
2022-07-26T02:53:25.492Z,89.64
2022-07-26T02:54:25.432Z,89.64
2022-07-26T02:55:25.393Z,89.35
2022-07-26T02:56:25.346Z,89.44
2022-07-26T02:57:25.301Z,89.58
2022-07-26T02:58:25.301Z,89.83
2022-07-26T02:59:25.217Z,90.06
2022-07-26T03:00:25.206Z,90.06
2022-07-26T03:01:25.179Z,90.02
2022-07-26T03:02:25.157Z,89.73
2022-07-26T03:03:25.052Z,90.02
2022-07-26T03:04:24.995Z,89.64
2022-07-26T03:05:24.966Z,89.78
2022-07-26T03:06:24.909Z,90.06
2022-07-26T03:07:24.867Z,90.31
2022-07-26T03:08:24.823Z,90.35
2022-07-26T03:09:24.781Z,90.31
2022-07-26T03:10:24.739Z,90.50
2022-07-26T03:11:24.696Z,90.69
2022-07-26T03:12:24.650Z,90.79
2022-07-26T03:13:24.608Z,91.08
2022-07-26T03:14:24.563Z,91.66
2022-07-26T03:15:24.703Z,91.46
2022-07-26T03:16:28.984Z,91.85
2022-07-26T03:17:24.436Z,92.04
2022-07-26T03:18:24.393Z,92.43
2022-07-26T03:19:24.350Z,92.04
2022-07-26T03:20:24.305Z,92.23
2022-07-26T03:21:24.260Z,92.13
2022-07-26T03:22:24.217Z,92.81
2022-07-26T03:23:24.175Z,93.00
2022-07-26T03:24:24.130Z,92.91
2022-07-26T03:25:24.086Z,93.10
2022-07-26T03:26:24.047Z,92.61
2022-07-26T03:27:24.004Z,92.61
2022-07-26T03:28:23.991Z,92.81
2022-07-26T03:29:23.915Z,93.19
2022-07-26T03:30:24.470Z,93.10
2022-07-26T03:31:23.977Z,93.58
2022-07-26T03:32:23.783Z,93.19
2022-07-26T03:33:23.743Z,93.19
2022-07-26T03:34:23.703Z,93.29
2022-07-26T03:35:23.658Z,93.29
2022-07-26T03:36:23.612Z,93.87
2022-07-26T03:37:23.567Z,93.96
2022-07-26T03:38:23.523Z,93.87
2022-07-26T03:39:23.486Z,94.83
2022-07-26T03:40:23.440Z,95.50
2022-07-26T03:41:23.399Z,95.89
2022-07-26T03:42:23.350Z,97.42
2022-07-26T03:43:23.587Z,98.10
2022-07-26T03:44:23.267Z,98.58
2022-07-26T03:45:23.232Z,99.26
2022-07-26T03:46:23.309Z,99.99
2022-07-26T03:47:23.137Z,99.99
2022-07-26T03:48:23.090Z,99.99
2022-07-26T03:49:23.206Z,99.73
2022-07-26T03:50:23.003Z,99.99
2022-07-26T03:51:22.967Z,99.99
2022-07-26T03:52:22.919Z,99.99
2022-07-26T03:53:22.875Z,99.99
2022-07-26T03:54:22.830Z,99.99
2022-07-26T03:55:22.791Z,99.99
2022-07-26T03:56:22.746Z,99.99
2022-07-26T03:57:22.705Z,99.99
2022-07-26T03:58:22.655Z,99.99
2022-07-26T03:59:22.616Z,99.99
2022-07-26T04:00:22.572Z,99.99
2022-07-26T04:01:22.586Z,99.99
2022-07-26T04:02:22.556Z,99.99
2022-07-26T04:03:22.442Z,99.99
2022-07-26T04:04:25.063Z,99.99
2022-07-26T04:05:23.597Z,99.99
2022-07-26T04:06:23.146Z,99.99
2022-07-26T04:07:22.269Z,99.99
2022-07-26T04:08:22.222Z,99.99
2022-07-26T04:09:22.184Z,99.99
2022-07-26T04:10:22.200Z,99.99
2022-07-26T04:11:22.095Z,99.99
2022-07-26T04:12:22.049Z,99.99
2022-07-26T04:13:22.017Z,99.99
2022-07-26T04:14:21.962Z,99.99
2022-07-26T04:15:21.923Z,99.99
2022-07-26T04:16:21.909Z,99.99
2022-07-26T04:17:21.916Z,99.99
2022-07-26T04:18:21.818Z,99.99
2022-07-26T04:19:21.749Z,99.99
2022-07-26T04:20:21.698Z,99.99
2022-07-26T04:21:21.659Z,99.99
2022-07-26T04:22:21.613Z,99.99
2022-07-26T04:23:21.570Z,99.99
2022-07-26T04:24:21.529Z,99.99
2022-07-26T04:25:21.486Z,99.99
2022-07-26T04:26:21.438Z,99.99
2022-07-26T04:27:21.397Z,99.99
2022-07-26T04:28:21.352Z,99.99
2022-07-26T04:29:21.312Z,99.99
2022-07-26T04:30:21.265Z,99.99
2022-07-26T04:31:21.322Z,99.99
2022-07-26T04:32:21.178Z,99.99
2022-07-26T04:33:21.134Z,99.99
2022-07-26T04:34:21.090Z,99.99
2022-07-26T04:35:21.049Z,99.99
2022-07-26T04:36:21.006Z,99.99
2022-07-26T04:37:20.964Z,99.99
2022-07-26T04:38:20.920Z,99.99
2022-07-26T04:39:20.875Z,99.99
2022-07-26T04:40:21.424Z,99.99
2022-07-26T04:41:20.789Z,99.99
2022-07-26T04:42:20.744Z,99.99
2022-07-26T04:43:20.698Z,99.99
2022-07-26T04:44:20.654Z,99.99
2022-07-26T04:45:20.612Z,99.99
2022-07-26T04:46:20.639Z,99.99
2022-07-26T04:47:20.533Z,99.99
2022-07-26T04:48:20.481Z,99.99
2022-07-26T04:49:20.440Z,99.99
2022-07-26T04:50:20.396Z,99.99
2022-07-26T04:51:20.356Z,99.99
2022-07-26T04:52:20.307Z,99.99
2022-07-26T04:53:20.264Z,99.99
2022-07-26T04:54:20.219Z,99.99
2022-07-26T04:55:20.176Z,99.99
2022-07-26T04:56:20.134Z,99.99
2022-07-26T04:57:20.088Z,99.99
2022-07-26T04:58:20.045Z,99.99
2022-07-26T04:59:21.948Z,99.99
2022-07-26T05:00:22.562Z,99.99
2022-07-26T05:01:19.932Z,99.99
2022-07-26T05:02:19.966Z,99.99
2022-07-26T05:03:19.929Z,99.99
2022-07-26T05:04:19.785Z,99.99
2022-07-26T05:05:19.745Z,99.99
2022-07-26T05:06:19.695Z,99.99
2022-07-26T05:07:19.652Z,99.99
2022-07-26T05:08:19.609Z,99.99
2022-07-26T05:09:19.573Z,99.99
2022-07-26T05:10:19.521Z,99.99
2022-07-26T05:11:19.482Z,99.99
2022-07-26T05:12:19.436Z,99.99
2022-07-26T05:13:29.527Z,99.99
2022-07-26T05:14:19.346Z,99.99
2022-07-26T05:15:19.304Z,99.99
2022-07-26T05:16:19.274Z,99.99
2022-07-26T05:17:19.258Z,99.99
2022-07-26T05:18:19.171Z,99.99
2022-07-26T05:19:19.130Z,99.99
2022-07-26T05:20:19.103Z,99.99
2022-07-26T05:21:19.042Z,99.99
2022-07-26T05:22:19.001Z,99.99
2022-07-26T05:23:18.956Z,99.99
2022-07-26T05:24:18.913Z,99.99
2022-07-26T05:25:18.866Z,99.99
2022-07-26T05:26:18.825Z,99.99
2022-07-26T05:27:18.781Z,99.99
2022-07-26T05:28:18.756Z,99.99
2022-07-26T05:29:18.695Z,99.99
2022-07-26T05:30:18.653Z,99.99
2022-07-26T05:31:18.677Z,99.99
2022-07-26T05:32:18.566Z,99.99
2022-07-26T05:33:18.518Z,99.99
2022-07-26T05:34:18.479Z,99.99
2022-07-26T05:35:18.433Z,99.99
2022-07-26T05:36:18.390Z,99.99
2022-07-26T05:37:18.348Z,99.99
2022-07-26T05:38:18.302Z,99.99
2022-07-26T05:39:18.258Z,99.99
2022-07-26T05:40:18.217Z,99.99
2022-07-26T05:41:18.170Z,99.99
2022-07-26T05:42:18.128Z,99.99
2022-07-26T05:43:18.088Z,99.99
2022-07-26T05:44:18.042Z,99.99
2022-07-26T05:45:17.996Z,99.99
2022-07-26T05:46:18.030Z,99.99
2022-07-26T05:47:17.909Z,99.99
2022-07-26T05:48:17.876Z,99.99
2022-07-26T05:49:17.880Z,99.99
2022-07-26T05:50:17.782Z,99.99
2022-07-26T05:51:17.741Z,99.99
2022-07-26T05:52:17.691Z,99.99
2022-07-26T05:53:17.649Z,99.99
2022-07-26T05:54:17.606Z,99.99
2022-07-26T05:55:17.559Z,99.99
2022-07-26T05:56:17.518Z,99.99
2022-07-26T05:57:17.472Z,99.99
2022-07-26T05:58:17.433Z,99.99
2022-07-26T05:59:17.389Z,99.99
2022-07-26T06:00:17.353Z,99.99
2022-07-26T06:01:17.298Z,99.99
2022-07-26T06:02:17.311Z,99.99
2022-07-26T06:03:17.212Z,99.99
2022-07-26T06:04:17.215Z,99.99
2022-07-26T06:05:17.127Z,99.99
2022-07-26T06:06:17.086Z,99.99
2022-07-26T06:07:17.040Z,99.99
2022-07-26T06:08:16.998Z,99.99
2022-07-26T06:09:16.954Z,99.99
2022-07-26T06:10:16.915Z,99.99
2022-07-26T06:11:16.865Z,99.99
2022-07-26T06:12:16.822Z,99.99
2022-07-26T06:13:16.779Z,99.99
2022-07-26T06:14:16.735Z,99.99
2022-07-26T06:15:16.695Z,99.99
2022-07-26T06:16:16.649Z,99.99
2022-07-26T06:17:16.672Z,99.99
2022-07-26T06:18:16.563Z,99.99
2022-07-26T06:19:16.529Z,99.99
2022-07-26T06:20:16.476Z,99.99
2022-07-26T06:21:16.431Z,99.99
2022-07-26T06:22:16.390Z,99.99
2022-07-26T06:23:16.346Z,99.99
2022-07-26T06:24:16.304Z,99.99
2022-07-26T06:25:16.258Z,99.99
2022-07-26T06:26:16.216Z,99.99
2022-07-26T06:27:16.173Z,99.99
2022-07-26T06:28:16.129Z,99.99
2022-07-26T06:29:16.085Z,99.99
2022-07-26T06:30:16.043Z,99.99
2022-07-26T06:31:16.089Z,99.99
2022-07-26T06:32:16.044Z,99.99
2022-07-26T06:33:15.914Z,99.99
2022-07-26T06:34:15.873Z,99.99
2022-07-26T06:35:15.827Z,99.99
2022-07-26T06:36:15.783Z,99.99
2022-07-26T06:37:15.741Z,99.99
2022-07-26T06:38:15.696Z,99.99
2022-07-26T06:39:15.653Z,99.99
2022-07-26T06:40:15.610Z,99.99
2022-07-26T06:41:15.565Z,99.99
2022-07-26T06:42:15.525Z,99.99
2022-07-26T06:43:15.481Z,99.99
2022-07-26T06:44:15.436Z,99.99
2022-07-26T06:45:15.395Z,99.99
2022-07-26T06:46:15.416Z,99.99
2022-07-26T06:47:15.306Z,99.99
2022-07-26T06:48:15.264Z,99.99
2022-07-26T06:49:17.388Z,99.99
2022-07-26T06:50:15.177Z,99.99
2022-07-26T06:51:15.136Z,99.99
2022-07-26T06:52:15.110Z,99.99
2022-07-26T06:53:15.045Z,99.99
2022-07-26T06:54:15.006Z,99.99
2022-07-26T06:55:14.966Z,99.99
2022-07-26T06:56:14.981Z,99.99
2022-07-26T06:57:14.876Z,99.99
2022-07-26T06:58:14.834Z,99.99
2022-07-26T06:59:14.791Z,99.99
2022-07-26T07:00:14.746Z,99.99
2022-07-26T07:01:51.476Z,99.99
2022-07-26T07:02:14.726Z,99.99
2022-07-26T07:03:14.616Z,99.99
2022-07-26T07:04:14.573Z,99.99
2022-07-26T07:05:14.619Z,99.99
2022-07-26T07:06:14.487Z,99.99
2022-07-26T07:07:14.445Z,99.99
2022-07-26T07:08:14.400Z,99.99
2022-07-26T07:09:14.354Z,99.99
2022-07-26T07:10:14.328Z,99.99
2022-07-26T07:11:14.363Z,99.99
2022-07-26T07:12:14.226Z,99.99
2022-07-26T07:13:14.184Z,99.99
2022-07-26T07:14:14.139Z,98.77
2022-07-26T07:15:14.095Z,98.97
2022-07-26T07:16:14.104Z,98.58
2022-07-26T07:17:18.484Z,99.11
2022-07-26T07:18:13.967Z,99.02
2022-07-26T07:19:13.925Z,99.88
2022-07-26T07:20:13.881Z,99.79
2022-07-26T07:21:13.836Z,99.02
2022-07-26T07:22:13.797Z,98.15
2022-07-26T07:23:13.753Z,98.24
2022-07-26T07:35:56.447Z,96.70
2022-07-26T07:36:56.408Z,96.37
2022-07-26T07:37:56.360Z,96.17
2022-07-26T07:38:56.313Z,97.04
2022-07-26T07:39:56.272Z,96.94
2022-07-26T07:40:56.228Z,96.27
2022-07-26T07:41:56.187Z,94.24
2022-07-26T07:42:56.146Z,94.06
2022-07-26T07:43:56.102Z,94.06
2022-07-26T07:44:56.057Z,94.34
2022-07-26T07:45:56.015Z,95.21
2022-07-26T07:46:56.068Z,94.63
2022-07-26T07:47:55.956Z,94.48
2022-07-26T07:48:55.912Z,95.16
2022-07-26T07:49:55.846Z,94.39
2022-07-26T07:50:55.801Z,92.85
2022-07-26T07:51:55.758Z,91.98
2022-07-26T07:52:55.714Z,92.27
2022-07-26T07:53:56.726Z,92.46
2022-07-26T07:55:06.558Z,92.85
2022-07-26T07:55:55.588Z,92.27
2022-07-26T07:56:55.546Z,92.36
2022-07-26T07:57:55.501Z,91.98
2022-07-26T07:58:55.460Z,92.46
2022-07-26T07:59:55.417Z,92.22
2022-07-26T08:00:55.507Z,92.08
2022-07-26T08:01:55.333Z,91.54
2022-07-26T08:02:55.295Z,90.67
2022-07-26T08:03:55.259Z,89.81
2022-07-26T08:04:55.208Z,89.03
2022-07-26T08:05:55.164Z,89.03
2022-07-26T08:06:55.119Z,89.61
2022-07-26T08:07:55.077Z,89.57
2022-07-26T08:08:55.037Z,89.61
2022-07-26T08:09:54.993Z,88.17
2022-07-26T08:10:54.952Z,89.03
2022-07-26T08:11:54.906Z,89.42
2022-07-26T08:12:54.864Z,89.03
2022-07-26T08:13:54.821Z,88.99
2022-07-26T08:14:54.778Z,89.51
2022-07-26T08:15:54.805Z,89.09
2022-07-26T08:16:54.748Z,89.13
2022-07-26T08:17:55.014Z,88.93
2022-07-26T08:18:57.774Z,89.67
2022-07-26T08:19:59.771Z,89.18
2022-07-26T08:20:54.525Z,88.93
2022-07-26T08:21:54.482Z,88.79
2022-07-26T08:22:54.439Z,89.42
2022-07-26T08:23:54.396Z,88.89
2022-07-26T08:24:54.353Z,89.03
2022-07-26T08:25:57.817Z,89.13
2022-07-26T08:26:54.268Z,88.45
2022-07-26T08:28:03.554Z,88.07
2022-07-26T08:28:59.899Z,88.26
2022-07-26T08:29:54.143Z,87.97
2022-07-26T08:30:54.097Z,88.55
2022-07-26T08:31:54.131Z,88.59
2022-07-26T08:32:54.027Z,86.66
2022-07-26T08:33:53.976Z,86.38
2022-07-26T08:34:53.931Z,86.18
2022-07-26T08:35:58.322Z,85.02
2022-07-26T08:37:15.433Z,84.93
2022-07-26T08:37:53.805Z,82.81
2022-07-26T08:38:53.759Z,82.51
2022-07-26T08:39:53.723Z,83.00
2022-07-26T08:40:53.681Z,83.48
2022-07-26T08:41:53.634Z,82.90
2022-07-26T08:42:53.592Z,82.90
2022-07-26T08:43:54.033Z,82.51
2022-07-26T08:44:53.506Z,81.84
2022-07-26T08:45:53.467Z,82.03
2022-07-26T08:46:53.513Z,82.90
2022-07-26T08:48:16.285Z,82.81
2022-07-26T08:48:53.410Z,82.81
2022-07-26T08:49:53.296Z,82.90
2022-07-26T08:50:53.256Z,83.09
2022-07-26T08:51:53.213Z,82.61
2022-07-26T08:52:53.172Z,81.65
2022-07-26T08:53:53.125Z,81.84
2022-07-26T08:54:53.084Z,82.03
2022-07-26T08:56:08.443Z,81.65
2022-07-26T08:56:52.998Z,81.84
2022-07-26T08:57:52.958Z,80.68
2022-07-26T08:58:52.913Z,80.68
2022-07-26T08:59:52.874Z,80.87
2022-07-26T09:00:52.862Z,80.10
2022-07-26T09:01:52.788Z,80.97
2022-07-26T09:02:52.749Z,80.20
2022-07-26T09:03:52.743Z,80.20
2022-07-26T09:04:52.711Z,80.62
2022-07-26T09:05:52.619Z,80.10
2022-07-26T09:06:52.574Z,80.10
2022-07-26T09:07:52.533Z,80.30
2022-07-26T09:08:52.494Z,80.14
2022-07-26T09:09:52.453Z,80.14
2022-07-26T09:10:52.406Z,80.58
2022-07-26T09:11:52.364Z,80.05
2022-07-26T09:12:52.321Z,79.75
2022-07-26T09:13:52.285Z,79.37
2022-07-26T09:14:52.236Z,78.89
2022-07-26T09:15:52.236Z,79.27
2022-07-26T09:16:52.152Z,78.59
2022-07-26T09:17:52.121Z,78.50
2022-07-26T09:18:52.071Z,78.34
2022-07-26T09:19:52.026Z,78.83
2022-07-26T09:20:51.984Z,78.64
2022-07-26T09:21:51.946Z,77.76
2022-07-26T09:22:51.900Z,78.29
2022-07-26T09:23:51.863Z,77.42
2022-07-26T09:24:51.815Z,77.19
2022-07-26T09:25:51.775Z,76.26
2022-07-26T09:26:51.730Z,77.42
2022-07-26T09:27:51.691Z,76.64
2022-07-26T09:28:51.648Z,76.87
2022-07-26T09:29:51.623Z,74.85
2022-07-26T09:30:51.730Z,75.62
2022-07-26T09:31:51.611Z,75.33
2022-07-26T09:32:55.520Z,75.43
2022-07-26T09:33:51.440Z,75.52
2022-07-26T09:34:53.622Z,75.62
2022-07-26T09:35:52.293Z,75.04
2022-07-26T09:36:51.317Z,74.85
2022-07-26T09:37:51.272Z,74.07
2022-07-26T09:38:51.233Z,74.01
2022-07-26T09:39:51.188Z,73.24
2022-07-26T09:40:51.870Z,72.95
2022-07-26T09:42:10.916Z,72.50
2022-07-26T09:42:51.063Z,72.17
2022-07-26T09:43:53.905Z,72.11
2022-07-26T09:44:50.979Z,72.02
2022-07-26T09:45:50.942Z,71.92
2022-07-26T09:46:51.024Z,71.44
2022-07-26T09:47:50.857Z,72.05
2022-07-26T09:49:50.848Z,68.85
2022-07-26T09:50:50.735Z,68.27
2022-07-26T09:51:50.703Z,68.95
2022-07-26T09:52:50.648Z,68.85
2022-07-26T09:53:50.607Z,69.24
2022-07-26T09:54:50.567Z,69.43
2022-07-26T09:55:50.525Z,69.15
2022-07-26T09:56:50.481Z,69.34
2022-07-26T09:57:54.500Z,69.73
2022-07-26T09:58:50.400Z,69.63
2022-07-26T09:59:50.360Z,69.53
2022-07-26T10:00:50.319Z,69.59
2022-07-26T10:01:50.378Z,69.50
2022-07-26T10:02:50.304Z,69.79
2022-07-26T10:03:50.194Z,69.69
2022-07-26T10:04:50.152Z,70.18
2022-07-26T10:05:50.113Z,70.47
2022-07-26T10:06:50.069Z,70.08
2022-07-26T10:07:50.030Z,69.59
2022-07-26T10:08:49.986Z,70.08
2022-07-26T10:09:49.968Z,69.69
2022-07-26T10:10:49.911Z,70.37
2022-07-26T10:11:49.863Z,70.27
2022-07-26T10:12:49.820Z,70.66
2022-07-26T10:13:49.783Z,71.14
2022-07-26T10:14:49.737Z,71.62
2022-07-26T10:15:49.767Z,71.53
2022-07-26T10:16:49.655Z,73.14
2022-07-26T10:17:49.709Z,74.49
2022-07-26T10:18:49.571Z,75.75
2022-07-26T10:19:49.534Z,75.56
2022-07-26T10:20:49.488Z,76.29
2022-07-26T10:21:49.449Z,77.26
2022-07-26T10:22:49.410Z,77.17
2022-07-26T10:23:49.368Z,77.75
2022-07-26T10:24:52.003Z,78.33
2022-07-26T10:25:49.284Z,79.06
2022-07-26T10:26:49.240Z,79.25
2022-07-26T10:27:49.198Z,79.83
2022-07-26T10:28:49.160Z,80.32
2022-07-26T10:29:49.118Z,80.66
2022-07-26T10:30:49.074Z,81.34
2022-07-26T10:31:49.105Z,82.31
2022-07-26T10:32:48.988Z,83.56
2022-07-26T10:33:48.949Z,84.30
2022-07-26T10:34:48.906Z,84.39
2022-07-26T10:35:48.869Z,85.74
2022-07-26T10:36:48.822Z,85.45
2022-07-26T10:37:48.786Z,85.84
2022-07-26T10:38:48.737Z,86.96
2022-07-26T10:39:48.699Z,87.73
2022-07-26T10:40:48.657Z,88.89
2022-07-26T10:41:48.617Z,89.75
2022-07-26T10:42:48.573Z,88.98
2022-07-26T10:43:48.528Z,89.17
2022-07-26T10:44:48.490Z,89.27
2022-07-26T10:45:50.164Z,88.98
2022-07-26T10:46:48.484Z,89.17
2022-07-26T10:47:48.359Z,89.61
2022-07-26T10:48:48.433Z,88.93
2022-07-26T10:49:48.277Z,88.65
2022-07-26T10:50:48.232Z,88.26
2022-07-26T10:51:48.194Z,88.36
2022-07-26T10:52:48.148Z,88.93
2022-07-26T10:53:48.108Z,89.42
2022-07-26T10:54:48.064Z,89.03
2022-07-26T10:55:48.022Z,89.90
2022-07-26T10:56:47.979Z,89.90
2022-07-26T10:57:47.940Z,90.58
2022-07-26T10:58:47.895Z,91.20
2022-07-26T10:59:55.731Z,91.20
2022-07-26T11:00:47.812Z,91.01
2022-07-26T11:01:47.865Z,90.33
2022-07-26T11:02:47.776Z,90.23
2022-07-26T11:03:47.687Z,90.37
2022-07-26T11:04:47.641Z,90.19
2022-07-26T11:05:47.602Z,88.64
2022-07-26T11:06:47.563Z,87.48
2022-07-26T11:07:47.522Z,86.52
2022-07-26T11:08:48.376Z,86.75
2022-07-26T11:09:47.433Z,86.46
2022-07-26T11:10:47.391Z,85.88
2022-07-26T11:11:47.578Z,87.04
2022-07-26T11:12:47.318Z,86.79
2022-07-26T11:13:47.264Z,86.69
2022-07-26T11:14:48.513Z,85.53
2022-07-26T11:15:47.206Z,85.44
2022-07-26T11:16:47.138Z,84.80
2022-07-26T11:17:47.100Z,84.32
2022-07-26T11:18:47.060Z,83.64
2022-07-26T11:19:47.017Z,82.97
2022-07-26T11:20:46.977Z,83.16
2022-07-26T11:21:46.934Z,82.29
2022-07-26T11:22:46.888Z,81.90
2022-07-26T11:23:46.847Z,82.29
2022-07-26T11:24:46.802Z,80.88
2022-07-26T11:25:46.769Z,80.98
2022-07-26T11:26:46.725Z,80.40
2022-07-26T11:27:46.680Z,79.91
2022-07-26T11:28:46.636Z,79.91
2022-07-26T11:29:49.169Z,79.91
2022-07-26T11:30:46.585Z,80.59
2022-07-26T11:31:50.981Z,80.11
2022-07-26T11:32:46.472Z,79.62
2022-07-26T11:33:46.435Z,79.24
2022-07-26T11:34:46.390Z,79.85
2022-07-26T11:35:46.348Z,79.76
2022-07-26T11:36:46.307Z,79.85
2022-07-26T11:37:46.264Z,79.37
2022-07-26T11:38:46.222Z,79.70
2022-07-26T11:39:46.181Z,79.41
2022-07-26T11:40:46.141Z,78.25
2022-07-26T11:41:46.101Z,76.12
2022-07-26T11:42:46.057Z,75.92
2022-07-26T11:43:46.016Z,75.48
2022-07-26T11:44:45.976Z,74.90
2022-07-26T11:45:45.935Z,74.41
2022-07-26T11:46:45.990Z,74.70
2022-07-26T11:47:45.854Z,74.22
2022-07-26T11:48:45.866Z,74.90
2022-07-26T11:50:00.170Z,74.26
2022-07-26T11:50:45.735Z,74.64
2022-07-26T11:51:45.686Z,73.96
2022-07-26T11:52:45.649Z,74.02
2022-07-26T11:53:45.607Z,74.60
2022-07-26T11:54:45.566Z,74.12
2022-07-26T11:55:47.518Z,73.83
2022-07-26T11:56:45.487Z,73.73
2022-07-26T11:57:45.458Z,74.06
2022-07-26T11:58:45.401Z,73.86
2022-07-26T11:59:45.368Z,74.16
2022-07-26T12:00:45.319Z,73.28
2022-07-26T12:01:49.659Z,72.51
2022-07-26T12:02:45.245Z,72.89
2022-07-26T12:03:45.250Z,73.09
2022-07-26T12:04:45.312Z,72.99
2022-07-26T12:05:45.138Z,72.99
2022-07-26T12:06:45.077Z,72.41
2022-07-26T12:07:45.038Z,73.61
2022-07-26T12:08:44.997Z,73.19
2022-07-26T12:09:44.953Z,72.25
2022-07-26T12:10:44.914Z,72.02
2022-07-26T12:11:44.867Z,71.73
2022-07-26T12:12:44.836Z,72.06
2022-07-26T12:13:55.927Z,72.35
2022-07-26T12:14:44.749Z,72.06
2022-07-26T12:15:44.834Z,71.09
2022-07-26T12:16:44.678Z,70.41
2022-07-26T12:17:44.627Z,70.51
2022-07-26T12:18:44.588Z,70.51
2022-07-26T12:19:44.564Z,70.15
2022-07-26T12:20:44.505Z,70.64
2022-07-26T12:21:44.462Z,70.93
2022-07-26T12:22:44.423Z,70.73
2022-07-26T12:23:44.381Z,69.57
2022-07-26T12:24:44.343Z,70.19
2022-07-26T12:25:45.166Z,68.57
2022-07-26T12:26:44.263Z,67.34
2022-07-26T12:27:44.226Z,66.76
2022-07-26T12:28:44.180Z,66.17
2022-07-26T12:29:44.136Z,65.69
2022-07-26T12:30:44.163Z,65.30
2022-07-26T12:31:44.058Z,65.30
2022-07-26T12:32:44.019Z,65.66
2022-07-26T12:33:44.601Z,65.66
2022-07-26T12:34:43.944Z,65.79
2022-07-26T12:35:43.897Z,65.23
2022-07-26T12:36:43.856Z,65.14
2022-07-26T12:37:43.815Z,64.85
2022-07-26T12:38:43.775Z,65.92
2022-07-26T12:39:43.737Z,66.11
2022-07-26T12:40:43.695Z,66.11
2022-07-26T12:41:43.655Z,65.40
2022-07-26T12:42:43.617Z,65.89
2022-07-26T12:44:43.534Z,64.59
2022-07-26T12:45:43.564Z,64.98
2022-07-26T12:46:43.505Z,65.53
2022-07-26T12:47:43.411Z,66.11
2022-07-26T12:48:43.520Z,66.08
2022-07-26T12:49:43.333Z,67.05
2022-07-26T12:50:43.291Z,66.95
2022-07-26T12:51:43.252Z,67.54
2022-07-26T12:52:43.213Z,67.92
2022-07-26T12:53:43.169Z,67.24
2022-07-26T12:54:43.129Z,67.08
2022-07-26T12:55:43.089Z,67.47
2022-07-26T12:56:43.046Z,66.47
2022-07-26T12:57:47.202Z,65.56
2022-07-26T12:58:42.971Z,63.51
2022-07-26T12:59:45.017Z,62.60
2022-07-26T13:00:42.889Z,59.70
2022-07-26T13:01:42.893Z,59.61
2022-07-26T13:02:42.947Z,58.53
2022-07-26T13:03:42.774Z,57.82
2022-07-26T13:04:42.792Z,58.18
2022-07-26T13:05:42.686Z,57.36